Time;durP1;ratioP1;P1;durP2;ratioP2;P2;SDS_P1;SDS_P2;PMS_P1;PMS_P2;Temp;Humidity;BMP_temperature;BMP_pressure;BME280_temperature;BME280_humidity;BME280_pressure;Samples;Min_cycle;Max_cycle;Signal;HPM_P1;HPM_P2
2023/04/18 00:01:37;;;;;;;18.05;12.10;;;;;;;8.61;81.20;102538.09;4949651;28;20117;-96
2023/04/18 00:04:03;;;;;;;17.58;11.95;;;;;;;8.60;81.12;102539.78;4950068;28;20030;-95
2023/04/18 00:06:30;;;;;;;18.20;11.75;;;;;;;8.60;81.05;102538.91;4950550;28;20400;-95
2023/04/18 00:08:55;;;;;;;18.05;11.98;;;;;;;8.57;81.09;102537.00;4949818;28;20027;-96
2023/04/18 00:11:20;;;;;;;17.10;12.48;;;;;;;8.53;80.92;102535.94;4968624;28;20041;-96
2023/04/18 00:13:47;;;;;;;19.63;12.20;;;;;;;8.51;80.83;102539.25;4949152;28;20485;-96
2023/04/18 00:16:13;;;;;;;19.08;12.65;;;;;;;8.49;80.56;102536.56;4950171;28;20484;-96
2023/04/18 00:18:39;;;;;;;18.65;12.00;;;;;;;8.50;80.81;102532.25;4949274;28;20038;-94
2023/04/18 00:21:05;;;;;;;20.77;12.63;;;;;;;8.46;80.78;102528.59;4948853;28;20118;-93
2023/04/18 00:23:32;;;;;;;17.90;12.65;;;;;;;8.45;80.72;102531.09;4957222;28;20026;-93
2023/04/18 00:25:58;;;;;;;18.15;12.40;;;;;;;8.43;80.82;102530.97;4950211;28;20046;-93
2023/04/18 00:28:23;;;;;;;20.45;13.13;;;;;;;8.42;80.87;102534.38;4950502;28;20026;-94
2023/04/18 00:30:49;;;;;;;18.70;12.73;;;;;;;8.40;81.02;102530.81;4949891;28;20023;-96
2023/04/18 00:33:15;;;;;;;20.10;12.20;;;;;;;8.39;81.10;102530.72;4949690;28;20481;-96
2023/04/18 00:35:40;;;;;;;19.13;12.63;;;;;;;8.36;80.80;102534.03;4949142;28;20042;-95
2023/04/18 00:38:05;;;;;;;18.42;12.45;;;;;;;8.34;81.31;102530.41;4948986;28;20034;-95
2023/04/18 00:40:30;;;;;;;19.25;13.30;;;;;;;8.31;80.90;102530.22;4949168;28;20150;-96
2023/04/18 00:42:56;;;;;;;21.38;13.35;;;;;;;8.31;80.69;102533.75;4950387;28;20047;-96
2023/04/18 00:45:21;;;;;;;18.90;12.45;;;;;;;8.29;80.24;102524.94;4948978;28;20027;-96
2023/04/18 00:47:46;;;;;;;18.90;12.63;;;;;;;8.25;79.83;102524.69;4967045;28;20039;-95
2023/04/18 00:50:12;;;;;;;18.45;12.43;;;;;;;8.25;79.55;102529.88;4953484;28;20043;-95
2023/04/18 00:52:37;;;;;;;18.50;12.15;;;;;;;8.22;79.00;102525.38;4953661;28;20037;-96
2023/04/18 00:55:06;;;;;;;17.60;12.38;;;;;;;8.18;78.89;102524.31;4971529;28;20445;-95
2023/04/18 00:57:31;;;;;;;18.10;12.48;;;;;;;8.17;78.42;102529.41;4953859;28;20041;-96
2023/04/18 00:59:59;;;;;;;16.75;12.35;;;;;;;8.13;77.88;102525.72;4953725;28;20031;-95
2023/04/18 01:02:27;;;;;;;16.13;11.95;;;;;;;8.13;77.68;102533.50;4952746;28;20476;-96
2023/04/18 01:04:52;;;;;;;19.13;12.38;;;;;;;8.11;77.38;102537.72;4953417;28;20034;-95
2023/04/18 01:07:18;;;;;;;19.65;12.27;;;;;;;8.09;76.98;102538.44;4953395;28;20031;-96
2023/04/18 01:09:43;;;;;;;20.52;12.75;;;;;;;8.04;76.78;102527.78;4970383;28;20027;-95
2023/04/18 01:12:09;;;;;;;17.35;11.90;;;;;;;8.02;76.72;102526.75;4953596;28;20023;-95
2023/04/18 01:14:34;;;;;;;18.92;12.10;;;;;;;8.00;76.13;102528.38;4951960;28;20042;-95
2023/04/18 01:17:00;;;;;;;19.88;12.32;;;;;;;7.98;76.14;102532.56;4953039;28;20480;-95
2023/04/18 01:19:25;;;;;;;17.58;12.23;;;;;;;7.96;76.02;102526.41;4952842;28;20034;-96
2023/04/18 01:21:52;;;;;;;17.58;12.38;;;;;;;7.97;75.59;102534.28;4952758;28;20061;-96
2023/04/18 01:24:17;;;;;;;19.20;11.95;;;;;;;7.95;75.87;102527.19;4954176;28;21058;-96
2023/04/18 01:26:44;;;;;;;17.70;12.15;;;;;;;7.92;75.40;102527.94;4951205;28;20034;-96
2023/04/18 01:29:10;;;;;;;19.48;12.73;;;;;;;7.87;75.81;102523.25;4952204;28;20507;-95
2023/04/18 01:31:36;;;;;;;19.58;12.07;;;;;;;7.83;75.60;102525.66;4952985;28;20023;-95
2023/04/18 01:34:03;;;;;;;17.73;12.15;;;;;;;7.80;75.82;102514.19;4953273;28;20041;-96
2023/04/18 01:36:28;;;;;;;20.23;12.35;;;;;;;7.75;76.07;102519.09;4952524;28;20022;-95
2023/04/18 01:38:54;;;;;;;18.92;12.40;;;;;;;7.72;76.05;102521.50;4953390;28;20132;-96
2023/04/18 01:41:20;;;;;;;17.27;11.80;;;;;;;7.70;76.36;102512.69;4951944;28;20451;-96
2023/04/18 01:43:45;;;;;;;20.67;12.70;;;;;;;7.63;76.05;102510.53;4952354;28;21068;-96
2023/04/18 01:46:10;;;;;;;18.08;12.07;;;;;;;7.56;76.94;102508.34;4953023;28;20034;-96
2023/04/18 01:48:36;;;;;;;20.27;12.45;;;;;;;7.53;77.06;102508.16;4953776;28;20027;-96
2023/04/18 01:51:01;;;;;;;18.48;12.52;;;;;;;7.47;77.00;102504.41;4952995;28;20026;-96
2023/04/18 01:53:26;;;;;;;17.33;12.05;;;;;;;7.42;77.01;102499.72;4952663;28;20480;-95
2023/04/18 01:55:51;;;;;;;18.67;12.40;;;;;;;7.42;77.08;102505.78;4951043;28;20062;-96
2023/04/18 01:58:21;;;;;;;16.90;11.90;;;;;;;7.37;77.50;102507.22;4951193;28;20062;-96
2023/04/18 02:00:47;;;;;;;16.88;12.25;;;;;;;7.36;77.28;102509.69;4951393;28;20065;-96
2023/04/18 02:03:12;;;;;;;18.27;12.32;;;;;;;7.34;77.13;102509.56;4952260;28;20042;-96
2023/04/18 02:05:38;;;;;;;18.55;12.23;;;;;;;7.33;77.10;102507.81;4969479;28;20512;-95
2023/04/18 02:08:03;;;;;;;18.33;11.85;;;;;;;7.32;77.09;102508.59;4970642;28;20035;-96
2023/04/18 02:10:28;;;;;;;18.27;12.55;;;;;;;7.27;77.17;102505.72;4967955;28;20022;-96
2023/04/18 02:12:54;;;;;;;17.10;11.43;;;;;;;7.26;77.27;102505.63;4969404;28;20031;-95
2023/04/18 02:15:19;;;;;;;17.38;12.52;;;;;;;7.22;77.04;102506.22;4966607;28;20050;-95
2023/04/18 02:17:45;;;;;;;18.13;12.07;;;;;;;7.15;77.20;102507.50;4969937;28;20030;-95
2023/04/18 02:20:10;;;;;;;18.98;12.13;;;;;;;7.12;76.93;102504.72;4952089;28;20035;-95
2023/04/18 02:22:37;;;;;;;16.40;11.60;;;;;;;7.08;77.59;102507.91;4969303;28;20493;-95
2023/04/18 02:25:02;;;;;;;16.05;11.45;;;;;;;7.04;77.43;102500.72;4951816;28;20035;-95
2023/04/18 02:27:28;;;;;;;18.02;12.75;;;;;;;7.01;77.28;102495.34;4950750;28;20476;-95
2023/04/18 02:29:53;;;;;;;18.75;12.30;;;;;;;6.95;76.90;102490.66;4951399;28;20048;-96
2023/04/18 02:32:18;;;;;;;17.38;11.77;;;;;;;6.92;77.60;102491.38;4952771;28;20081;-95
2023/04/18 02:34:43;;;;;;;16.70;11.57;;;;;;;6.91;77.50;102497.34;4950646;28;20030;-96
2023/04/18 02:37:10;;;;;;;18.02;12.13;;;;;;;6.88;77.58;102496.25;4950396;28;20046;-95
2023/04/18 02:39:35;;;;;;;17.58;12.07;;;;;;;6.85;77.40;102494.38;4950920;28;20059;-95
2023/04/18 02:42:00;;;;;;;18.63;11.70;;;;;;;6.84;77.23;102500.34;4951537;28;20029;-95
2023/04/18 02:44:26;;;;;;;18.77;12.25;;;;;;;6.79;77.54;102497.47;4951689;28;20118;-96
2023/04/18 02:46:51;;;;;;;17.27;11.73;;;;;;;6.78;77.27;102493.06;4952141;28;20034;-95
2023/04/18 02:49:17;;;;;;;18.58;12.23;;;;;;;6.74;77.40;102496.25;4951421;28;20062;-95
2023/04/18 02:51:42;;;;;;;16.45;11.85;;;;;;;6.70;77.45;102491.66;4950315;28;20057;-96
2023/04/18 02:54:07;;;;;;;18.02;12.20;;;;;;;6.70;77.48;102501.13;4951298;28;20464;-96
2023/04/18 02:56:38;;;;;;;18.10;11.82;;;;;;;6.67;77.08;102493.16;4951057;28;20041;-95
2023/04/18 02:59:03;;;;;;;16.67;11.70;;;;;;;6.68;77.88;102494.97;4952180;28;20034;-95
2023/04/18 03:01:29;;;;;;;18.08;11.82;;;;;;;6.67;77.59;102491.47;4950795;28;20409;-95
2023/04/18 03:03:54;;;;;;;17.15;12.02;;;;;;;6.65;77.70;102495.66;4951423;28;20607;-95
2023/04/18 03:06:19;;;;;;;17.42;12.02;;;;;;;6.62;77.40;102492.88;4949464;28;20030;-95
2023/04/18 03:08:45;;;;;;;17.17;11.70;;;;;;;6.60;77.34;102486.66;4969210;28;20038;-96
2023/04/18 03:11:10;;;;;;;18.38;11.80;;;;;;;6.55;77.94;102488.06;4968649;28;20031;-94
2023/04/18 03:13:35;;;;;;;16.98;11.48;;;;;;;6.52;77.77;102485.28;4951713;28;20042;-95
2023/04/18 03:16:01;;;;;;;18.20;11.93;;;;;;;6.48;77.46;102491.94;4929285;29;20078;-96
2023/04/18 03:18:26;;;;;;;18.90;11.70;;;;;;;6.43;77.38;102491.63;4920858;29;20079;-95
2023/04/18 03:20:51;;;;;;;16.80;11.52;;;;;;;6.39;78.20;102489.63;4927607;29;20118;-95
2023/04/18 03:23:17;;;;;;;17.33;11.75;;;;;;;6.32;78.03;102490.00;4928601;29;20046;-92
2023/04/18 03:25:42;;;;;;;18.33;11.90;;;;;;;6.25;78.18;102485.22;4929569;28;20023;-93
2023/04/18 03:28:08;;;;;;;18.77;11.98;;;;;;;6.26;78.29;102499.97;4929471;29;20038;-96
2023/04/18 03:30:33;;;;;;;17.55;11.63;;;;;;;6.23;78.06;102495.47;4930245;29;20087;-96
2023/04/18 03:33:01;;;;;;;17.85;12.05;;;;;;;6.21;77.83;102498.72;4927431;29;20035;-95
2023/04/18 03:35:26;;;;;;;16.35;11.23;;;;;;;6.18;77.94;102495.94;4927276;29;20050;-95
2023/04/18 03:37:52;;;;;;;17.55;11.95;;;;;;;6.12;78.64;102492.94;4929339;29;20489;-95
2023/04/18 03:40:17;;;;;;;20.52;12.38;;;;;;;6.09;78.67;102496.22;4928724;29;20035;-95
2023/04/18 03:42:43;;;;;;;19.13;12.73;;;;;;;6.04;78.52;102490.72;4928563;29;20032;-96
2023/04/18 03:45:08;;;;;;;17.75;11.77;;;;;;;6.03;79.22;102503.56;4930152;29;20098;-95
2023/04/18 03:47:34;;;;;;;17.67;11.70;;;;;;;5.99;78.87;102499.84;4928221;29;20526;-95
2023/04/18 03:49:59;;;;;;;16.88;11.65;;;;;;;5.95;78.75;102500.38;4929429;29;20062;-95
2023/04/18 03:52:25;;;;;;;18.67;12.15;;;;;;;5.90;78.97;102502.66;4927791;28;20027;-95
2023/04/18 03:54:50;;;;;;;17.02;11.68;;;;;;;5.90;79.16;102496.59;4930291;29;20397;-94
2023/04/18 03:57:16;;;;;;;17.95;12.57;;;;;;;5.85;79.21;102501.47;4928859;29;20474;-95
2023/04/18 03:59:42;;;;;;;20.20;12.50;;;;;;;5.80;79.61;102499.34;4928970;29;20058;-95
2023/04/18 04:02:07;;;;;;;16.80;11.73;;;;;;;5.78;79.76;102506.06;4928492;29;20035;-95
2023/04/18 04:04:32;;;;;;;16.42;11.65;;;;;;;5.72;79.97;102502.28;4928406;29;20027;-96
2023/04/18 04:06:58;;;;;;;17.73;11.23;;;;;;;5.71;79.54;102505.66;4927556;29;20020;-95
2023/04/18 04:09:24;;;;;;;18.77;11.60;;;;;;;5.70;80.10;102501.25;4930060;29;20090;-96
2023/04/18 04:11:49;;;;;;;17.95;12.40;;;;;;;5.68;79.89;102499.38;4928328;29;20473;-95
2023/04/18 04:14:14;;;;;;;19.35;11.85;;;;;;;5.66;80.23;102503.53;4930053;28;20048;-96
2023/04/18 04:16:40;;;;;;;17.25;11.90;;;;;;;5.63;79.95;102498.16;4935714;28;20493;-96
2023/04/18 04:19:05;;;;;;;16.05;11.25;;;;;;;5.62;80.07;102501.53;4936541;28;20036;-95
2023/04/18 04:21:30;;;;;;;16.17;11.30;;;;;;;5.61;79.89;102498.03;4934694;29;20031;-95
2023/04/18 04:23:56;;;;;;;17.10;11.35;;;;;;;5.61;79.67;102504.91;4936825;28;20039;-96
2023/04/18 04:26:22;;;;;;;17.00;11.35;;;;;;;5.58;80.22;102496.13;4935111;28;20391;-96
2023/04/18 04:28:48;;;;;;;17.42;11.45;;;;;;;5.57;80.04;102499.50;4935161;28;20378;-95
2023/04/18 04:31:15;;;;;;;15.70;11.10;;;;;;;5.55;80.32;102505.38;4935151;28;20028;-94
2023/04/18 04:33:41;;;;;;;18.65;11.55;;;;;;;5.52;80.16;102503.47;4937752;28;20066;-96
2023/04/18 04:36:07;;;;;;;18.63;11.77;;;;;;;5.50;80.39;102512.78;4933303;28;20029;-95
2023/04/18 04:38:36;;;;;;;18.92;11.88;;;;;;;5.48;80.51;102505.72;4934234;28;20024;-95
2023/04/18 04:41:02;;;;;;;20.08;11.20;;;;;;;5.47;80.56;102507.41;4934979;29;20544;-96
2023/04/18 04:43:28;;;;;;;18.83;11.25;;;;;;;5.44;81.03;102504.59;4933869;29;20042;-95
2023/04/18 04:45:53;;;;;;;17.00;10.85;;;;;;;5.43;80.15;102505.41;4932332;29;20106;-95
2023/04/18 04:48:20;;;;;;;19.90;11.90;;;;;;;5.44;80.64;102502.00;4935564;28;20482;-92
2023/04/18 04:50:57;;;;;;;16.67;11.10;;;;;;;5.47;80.81;102512.56;4935000;29;20086;-95
2023/04/18 04:53:24;;;;;;;19.15;11.93;;;;;;;5.44;80.64;102509.78;4935703;29;20045;-95
2023/04/18 04:55:50;;;;;;;18.63;11.75;;;;;;;5.40;80.90;102519.00;4950068;28;20027;-95
2023/04/18 04:58:16;;;;;;;17.80;11.98;;;;;;;5.38;80.75;102517.09;4934484;28;20540;-95
2023/04/18 05:00:41;;;;;;;18.15;11.82;;;;;;;5.38;81.22;102517.97;4935198;28;20130;-96
2023/04/18 05:03:07;;;;;;;18.55;11.77;;;;;;;5.37;80.84;102517.88;4933352;28;20592;-96
2023/04/18 05:05:32;;;;;;;17.00;11.25;;;;;;;5.36;80.30;102516.09;4935974;29;20484;-96
2023/04/18 05:07:58;;;;;;;19.20;11.63;;;;;;;5.35;80.69;102522.94;4934512;28;20036;-96
2023/04/18 05:10:23;;;;;;;17.88;11.25;;;;;;;5.35;81.40;102520.34;4950191;28;20401;-95
2023/04/18 05:12:48;;;;;;;18.80;10.95;;;;;;;5.32;81.03;102522.72;4934326;28;20074;-95
2023/04/18 05:15:15;;;;;;;15.85;10.98;;;;;;;5.28;81.08;102524.97;4941554;28;20568;-95
2023/04/18 05:17:40;;;;;;;16.80;10.93;;;;;;;5.29;81.46;102525.09;4945822;28;20055;-95
2023/04/18 05:20:07;;;;;;;16.30;11.25;;;;;;;5.33;81.05;102529.69;4946925;28;20037;-95
2023/04/18 05:22:32;;;;;;;17.98;11.10;;;;;;;5.35;81.15;102535.84;4946708;28;20639;-96
2023/04/18 05:24:58;;;;;;;17.08;11.55;;;;;;;5.35;81.13;102524.63;4945505;28;20055;-96
2023/04/18 05:27:25;;;;;;;17.38;11.82;;;;;;;5.33;80.78;102532.28;4946417;28;20035;-96
2023/04/18 05:29:51;;;;;;;19.40;11.70;;;;;;;5.32;81.07;102533.06;4945466;28;20035;-96
2023/04/18 05:32:16;;;;;;;16.42;11.00;;;;;;;5.34;81.14;102533.16;4945174;28;20019;-95
2023/04/18 05:34:42;;;;;;;17.50;11.52;;;;;;;5.33;80.92;102531.34;4948886;28;21103;-95
2023/04/18 05:37:07;;;;;;;17.73;10.82;;;;;;;5.31;80.80;102539.00;4950360;28;20031;-95
2023/04/18 05:39:33;;;;;;;17.83;10.93;;;;;;;5.34;80.71;102541.81;4949100;28;20489;-95
2023/04/18 05:41:58;;;;;;;17.42;11.07;;;;;;;5.36;80.92;102545.41;4950028;28;20118;-96
2023/04/18 05:44:23;;;;;;;18.40;11.30;;;;;;;5.42;81.66;102538.88;4949355;28;20146;-95
2023/04/18 05:46:50;;;;;;;17.35;11.07;;;;;;;5.44;82.08;102540.78;4950664;28;20031;-94
2023/04/18 05:49:17;;;;;;;15.65;11.02;;;;;;;5.50;82.23;102542.91;4948804;28;20564;-95
2023/04/18 05:51:42;;;;;;;17.60;11.23;;;;;;;5.56;81.86;102556.28;4950044;28;20023;-95
2023/04/18 05:54:08;;;;;;;20.35;11.50;;;;;;;5.62;82.15;102548.97;4948539;28;20039;-95
2023/04/18 05:56:33;;;;;;;19.17;11.55;;;;;;;5.69;82.20;102550.28;4949391;28;20490;-95
2023/04/18 05:58:58;;;;;;;17.63;12.02;;;;;;;5.74;81.32;102554.13;4949598;28;20270;-95
2023/04/18 06:01:24;;;;;;;17.80;10.90;;;;;;;5.78;81.84;102556.16;4949469;28;20086;-95
2023/04/18 06:03:49;;;;;;;17.33;11.25;;;;;;;5.84;81.85;102559.16;4950792;28;20042;-95
2023/04/18 06:06:15;;;;;;;17.63;11.05;;;;;;;5.91;81.88;102557.91;4948408;28;20031;-95
2023/04/18 06:08:40;;;;;;;18.13;11.23;;;;;;;5.96;81.69;102550.47;4947242;28;20027;-96
2023/04/18 06:11:06;;;;;;;17.83;11.68;;;;;;;6.03;81.91;102557.91;4965635;28;20038;-96
2023/04/18 06:13:31;;;;;;;16.45;11.00;;;;;;;6.07;81.92;102549.56;4947726;28;20042;-96
2023/04/18 06:15:57;;;;;;;18.80;12.10;;;;;;;6.12;82.15;102555.06;4937840;28;20045;-96
2023/04/18 06:18:22;;;;;;;18.30;11.55;;;;;;;6.17;81.49;102558.84;4938107;29;20028;-95
2023/04/18 06:20:48;;;;;;;17.48;11.60;;;;;;;6.19;82.17;102563.34;4937305;28;20030;-96
2023/04/18 06:23:13;;;;;;;17.75;11.80;;;;;;;6.24;81.81;102561.06;4938231;28;20027;-96
2023/04/18 06:25:40;;;;;;;18.25;11.20;;;;;;;6.28;81.56;102563.06;4937284;28;20039;-95
2023/04/18 06:28:06;;;;;;;17.30;11.60;;;;;;;6.31;82.23;102570.16;4937158;28;20640;-94
2023/04/18 06:30:31;;;;;;;16.50;11.75;;;;;;;6.34;82.31;102565.19;4934711;28;20976;-95
2023/04/18 06:32:56;;;;;;;18.27;11.93;;;;;;;6.41;82.29;102570.00;4937798;28;20554;-94
2023/04/18 06:35:22;;;;;;;17.63;11.38;;;;;;;6.47;82.48;102569.50;4935169;28;20108;-96
2023/04/18 06:37:47;;;;;;;17.45;11.88;;;;;;;6.54;82.72;102572.63;4937698;28;20031;-95
2023/04/18 06:40:13;;;;;;;16.92;11.65;;;;;;;6.62;82.70;102573.16;4937523;28;20496;-96
2023/04/18 06:42:38;;;;;;;17.92;11.13;;;;;;;6.72;82.28;102570.38;4935706;29;20040;-96
2023/04/18 06:45:05;;;;;;;17.45;11.07;;;;;;;6.78;82.27;102575.09;4934346;28;20042;-95
2023/04/18 06:47:30;;;;;;;17.63;11.40;;;;;;;6.84;82.78;102572.91;4931592;28;20031;-95
2023/04/18 06:49:56;;;;;;;15.63;11.00;;;;;;;6.91;83.49;102571.63;4933574;28;20027;-95
2023/04/18 06:52:21;;;;;;;17.80;11.27;;;;;;;6.97;82.13;102578.09;4938386;28;20040;-95
2023/04/18 06:54:46;;;;;;;16.40;10.88;;;;;;;7.02;81.34;102569.72;4938162;29;20378;-96
2023/04/18 06:57:12;;;;;;;18.10;11.15;;;;;;;7.06;81.97;102576.91;4937147;28;20031;-95
2023/04/18 06:59:37;;;;;;;14.43;10.90;;;;;;;7.09;82.09;102578.00;4935971;28;20035;-96
2023/04/18 07:02:03;;;;;;;16.90;10.98;;;;;;;7.12;82.06;102575.59;4936440;29;20343;-96
2023/04/18 07:04:28;;;;;;;15.55;10.98;;;;;;;7.13;81.03;102574.81;4937683;28;20031;-96
2023/04/18 07:06:53;;;;;;;16.48;10.50;;;;;;;7.18;82.22;102584.59;4938310;28;20034;-96
2023/04/18 07:09:19;;;;;;;17.70;10.70;;;;;;;7.18;81.49;102588.06;4936051;29;20118;-96
2023/04/18 07:11:44;;;;;;;15.95;10.70;;;;;;;7.20;81.99;102591.69;4935378;28;20457;-96
2023/04/18 07:14:10;;;;;;;15.30;10.40;;;;;;;7.22;81.76;102584.88;4940781;28;20055;-96
2023/04/18 07:16:36;;;;;;;16.55;11.25;;;;;;;7.27;83.10;102588.69;4968689;28;20035;-96
2023/04/18 07:19:01;;;;;;;17.20;10.50;;;;;;;7.31;82.83;102587.19;4968783;28;20058;-95
2023/04/18 07:21:27;;;;;;;15.52;10.15;;;;;;;7.32;82.12;102582.09;4969679;28;20076;-95
2023/04/18 07:23:52;;;;;;;14.85;10.68;;;;;;;7.31;81.64;102588.09;4969061;28;20030;-96
2023/04/18 07:26:18;;;;;;;15.52;10.40;;;;;;;7.32;81.58;102589.88;4967512;28;20089;-95
2023/04/18 07:28:43;;;;;;;15.98;10.90;;;;;;;7.35;82.17;102589.19;4969247;28;20126;-96
2023/04/18 07:31:10;;;;;;;16.85;11.60;;;;;;;7.40;81.81;102594.66;4951590;28;20105;-96
2023/04/18 07:33:36;;;;;;;15.45;9.80;;;;;;;7.43;81.70;102595.78;4968115;28;20026;-95
2023/04/18 07:36:02;;;;;;;15.52;10.95;;;;;;;7.51;81.75;102600.56;4966981;28;20085;-95
2023/04/18 07:38:27;;;;;;;16.70;11.52;;;;;;;7.60;81.37;102601.13;4969346;28;20650;-96
2023/04/18 07:40:57;;;;;;;14.43;10.05;;;;;;;7.69;82.51;102606.00;4949862;28;20519;-96
2023/04/18 07:43:22;;;;;;;;;;;;;;;7.80;81.46;102603.28;4949681;28;20161;-96
2023/04/18 07:45:47;;;;;;;17.10;10.03;;;;;;;7.80;80.48;102605.00;4967626;28;20463;-95
2023/04/18 07:48:13;;;;;;;17.35;10.52;;;;;;;7.76;80.39;102598.72;4951073;28;20340;-96
2023/04/18 07:50:38;;;;;;;15.80;10.65;;;;;;;7.77;81.17;102603.09;4967349;28;20022;-96
2023/04/18 07:53:04;;;;;;;15.25;10.23;;;;;;;7.86;81.94;102601.91;4950912;28;20081;-96
2023/04/18 07:55:29;;;;;;;17.48;10.40;;;;;;;7.99;81.98;102605.38;4948675;28;20027;-96
2023/04/18 07:57:54;;;;;;;14.30;10.05;;;;;;;8.11;79.81;102610.44;4967197;28;20576;-96
2023/04/18 08:00:20;;;;;;;16.70;10.98;;;;;;;8.17;80.12;102610.78;4950383;28;20560;-96
2023/04/18 08:02:45;;;;;;;14.02;9.90;;;;;;;8.21;79.74;102605.78;4966372;28;20030;-96
2023/04/18 08:05:11;;;;;;;14.07;10.00;;;;;;;8.30;81.04;102606.38;4950177;28;20029;-95
2023/04/18 08:07:36;;;;;;;14.57;9.52;;;;;;;8.39;79.00;102616.44;4949910;28;20109;-96
2023/04/18 08:10:02;;;;;;;14.20;9.73;;;;;;;8.43;80.50;102614.09;4949399;28;20058;-96
2023/04/18 08:12:27;;;;;;;15.82;10.10;;;;;;;8.47;80.59;102613.53;4959473;28;20029;-95
2023/04/18 08:14:53;;;;;;;14.40;9.75;;;;;;;8.45;80.31;102607.31;4936380;28;20091;-96
2023/04/18 08:17:18;;;;;;;14.50;9.80;;;;;;;8.50;79.89;102621.50;4928349;29;20036;-95
2023/04/18 08:19:44;;;;;;;15.63;10.15;;;;;;;8.53;80.43;102623.41;4928324;29;20119;-96
2023/04/18 08:22:10;;;;;;;15.23;9.90;;;;;;;8.55;79.82;102618.28;4928703;28;20482;-96
2023/04/18 08:24:37;;;;;;;14.27;9.52;;;;;;;8.56;79.77;102620.97;4926235;29;20046;-96
2023/04/18 08:27:03;;;;;;;13.98;10.13;;;;;;;8.56;79.15;102620.06;4927659;29;20366;-96
2023/04/18 08:29:28;;;;;;;13.25;9.90;;;;;;;8.57;80.08;102617.56;4928227;29;20102;-96
2023/04/18 08:31:53;;;;;;;14.52;10.18;;;;;;;8.59;80.65;102621.16;4928126;29;20035;-96
2023/04/18 08:34:19;;;;;;;14.43;10.38;;;;;;;8.60;79.56;102624.66;4928411;29;20158;-96
2023/04/18 08:36:44;;;;;;;15.85;10.10;;;;;;;8.60;80.37;102622.03;4927998;29;20106;-96
2023/04/18 08:39:10;;;;;;;13.90;9.40;;;;;;;8.62;80.55;102621.34;4925903;28;20074;-96
2023/04/18 08:41:39;;;;;;;14.80;10.13;;;;;;;8.65;81.09;102610.25;4927471;28;20055;-96
2023/04/18 08:44:05;;;;;;;14.23;10.00;;;;;;;8.72;80.96;102616.69;4921128;28;20498;-96
2023/04/18 08:46:34;;;;;;;15.98;10.55;;;;;;;8.74;79.57;102605.59;4927833;29;20106;-96
2023/04/18 08:49:03;;;;;;;13.32;9.63;;;;;;;8.79;79.94;102611.97;4920657;28;20035;-96
2023/04/18 08:51:31;;;;;;;14.45;9.70;;;;;;;8.85;79.45;102601.91;4943439;28;20031;-96
2023/04/18 08:54:03;;;;;;;15.82;10.45;;;;;;;8.92;79.53;102612.66;4926279;29;20477;-95
2023/04/18 08:56:28;;;;;;;13.35;9.93;;;;;;;8.96;78.63;102606.84;4928076;29;20031;-96
2023/04/18 08:58:59;;;;;;;15.27;10.20;;;;;;;9.01;79.16;102601.13;4928176;29;20608;-96
2023/04/18 09:01:55;;;;;;;14.77;10.27;;;;;;;9.15;79.50;102598.41;4926902;29;20032;-96
2023/04/18 09:04:43;;;;;;;15.70;10.38;;;;;;;9.36;80.23;102599.66;4928842;29;20028;-96
2023/04/18 09:07:14;;;;;;;14.50;10.35;;;;;;;9.67;78.62;102587.47;4927989;29;20091;-96
2023/04/18 09:09:50;;;;;;;15.35;10.38;;;;;;;9.95;79.78;102586.38;4927368;29;20405;-96
2023/04/18 09:12:24;;;;;;;14.43;10.35;;;;;;;10.06;77.97;102582.63;4931357;29;21436;-96
2023/04/18 09:14:50;;;;;;;13.73;10.38;;;;;;;10.15;77.72;102585.72;4935372;29;20323;-96
2023/04/18 09:17:37;;;;;;;16.17;10.55;;;;;;;10.33;78.43;102590.16;4937966;29;20032;-96
2023/04/18 09:20:04;;;;;;;13.60;10.05;;;;;;;10.67;74.80;102586.72;4935690;28;20431;-96
2023/04/18 09:22:49;;;;;;;14.07;9.95;;;;;;;10.94;73.71;102576.78;4939043;28;20028;-96
2023/04/18 09:25:26;;;;;;;13.82;9.70;;;;;;;10.95;72.42;102576.84;4940690;29;20497;-96
2023/04/18 09:27:52;;;;;;;12.93;9.23;;;;;;;11.11;73.62;102582.84;4939997;28;20531;-94
2023/04/18 09:30:30;;;;;;;15.27;9.20;;;;;;;11.19;72.91;102585.81;4936890;28;20625;-96
2023/04/18 09:32:58;;;;;;;12.98;8.93;;;;;;;11.09;71.99;102587.06;4937230;28;20036;-96
2023/04/18 09:35:25;;;;;;;11.93;8.77;;;;;;;10.89;70.22;102592.22;4938853;28;20031;-96
2023/04/18 09:37:50;;;;;;;13.50;9.43;;;;;;;10.70;69.85;102589.47;4953003;28;20019;-96
2023/04/18 09:40:17;;;;;;;13.48;8.45;;;;;;;10.57;71.20;102588.84;4937968;28;20030;-96
2023/04/18 09:42:43;;;;;;;11.85;8.70;;;;;;;10.55;70.95;102581.75;4938283;28;20094;-96
2023/04/18 09:45:09;;;;;;;12.13;8.90;;;;;;;10.54;71.15;102579.97;4937478;28;20036;-96
2023/04/18 09:47:35;;;;;;;12.80;8.88;;;;;;;10.79;71.70;102577.81;4937568;28;20031;-96
2023/04/18 09:50:05;;;;;;;12.95;8.70;;;;;;;11.04;70.85;102580.75;4937475;28;20487;-96
2023/04/18 09:52:39;;;;;;;12.07;8.73;;;;;;;11.09;70.66;102561.00;4936437;29;20553;-96
2023/04/18 09:55:07;;;;;;;12.15;8.40;;;;;;;11.08;69.08;102569.63;4954215;28;20039;-96
2023/04/18 09:57:34;;;;;;;11.13;8.05;;;;;;;11.07;70.62;102568.75;4937728;28;20038;-96
2023/04/18 10:00:16;;;;;;;11.45;7.95;;;;;;;11.01;69.76;102580.56;4938071;29;20091;-96
2023/04/18 10:03:08;;;;;;;10.63;7.75;;;;;;;10.95;70.37;102568.16;4938403;29;20245;-96
2023/04/18 10:05:35;;;;;;;11.07;7.43;;;;;;;10.91;69.87;102577.53;4935872;28;20024;-96
2023/04/18 10:08:02;;;;;;;10.50;7.65;;;;;;;10.92;71.38;102578.41;4938058;28;20493;-96
2023/04/18 10:10:27;;;;;;;12.65;8.27;;;;;;;10.89;70.89;102583.47;4937097;28;20024;-96
2023/04/18 10:12:55;;;;;;;10.70;8.05;;;;;;;10.86;73.40;102575.50;4939332;28;20034;-96
2023/04/18 10:15:22;;;;;;;13.88;7.75;;;;;;;10.84;70.40;102575.41;4928659;29;20048;-96
2023/04/18 10:17:52;;;;;;;10.32;7.38;;;;;;;10.77;69.92;102586.34;4924499;29;20127;-96
2023/04/18 10:20:20;;;;;;;9.50;6.75;;;;;;;10.68;70.61;102583.28;4923022;28;20035;-96
2023/04/18 10:22:47;;;;;;;9.05;6.15;;;;;;;10.60;69.13;102590.69;4925888;28;20035;-96
2023/04/18 10:25:13;;;;;;;10.25;6.32;;;;;;;10.53;69.35;102584.28;4925544;29;20118;-96
2023/04/18 10:27:54;;;;;;;9.63;6.18;;;;;;;10.52;71.17;102581.59;4926864;28;20035;-95
2023/04/18 10:30:39;;;;;;;8.85;5.95;;;;;;;10.58;70.49;102588.00;4924247;28;20070;-96
2023/04/18 10:33:29;;;;;;;8.15;5.20;;;;;;;10.64;70.96;102595.25;4940089;28;20036;-96
2023/04/18 10:35:58;;;;;;;;;;;;;;;10.69;69.87;102585.06;4924217;29;20036;-96
2023/04/18 10:38:24;;;;;;;8.73;5.10;;;;;;;10.66;67.73;102580.59;4932679;29;20392;-96
2023/04/18 10:40:49;;;;;;;7.90;5.60;;;;;;;10.73;68.59;102579.19;4926224;29;20027;-96
2023/04/18 10:43:15;;;;;;;8.73;5.50;;;;;;;10.82;69.02;102590.09;4925004;29;20087;-96
2023/04/18 10:45:40;;;;;;;9.27;6.05;;;;;;;10.90;70.02;102586.16;4926182;28;20066;-96
2023/04/18 10:48:23;;;;;;;9.50;6.22;;;;;;;11.02;70.20;102574.53;4939639;28;20035;-96
2023/04/18 10:51:10;;;;;;;9.65;6.55;;;;;;;11.08;68.68;102578.38;4925481;29;20493;-96
2023/04/18 10:53:36;;;;;;;10.18;6.93;;;;;;;11.12;69.22;102576.78;4926195;28;20040;-96
2023/04/18 10:56:02;;;;;;;10.65;6.90;;;;;;;11.25;69.29;102573.06;4924095;29;20402;-96
2023/04/18 10:58:30;;;;;;;10.82;6.95;;;;;;;11.41;68.05;102577.31;4925239;28;20059;-96
2023/04/18 11:00:56;;;;;;;9.10;6.65;;;;;;;11.41;70.62;102585.13;4924124;29;20028;-96
2023/04/18 11:03:32;;;;;;;9.25;6.68;;;;;;;11.34;67.55;102577.84;4925407;29;20032;-96
2023/04/18 11:06:03;;;;;;;9.80;7.20;;;;;;;11.19;68.09;102578.88;4924683;29;20466;-96
2023/04/18 11:08:29;;;;;;;10.98;7.38;;;;;;;11.05;67.93;102580.81;4941398;28;20035;-96
2023/04/18 11:11:02;;;;;;;10.95;7.65;;;;;;;10.96;69.60;102576.03;4923094;29;20009;-95
2023/04/18 11:13:27;;;;;;;12.38;7.88;;;;;;;10.90;68.60;102578.31;4925409;28;20039;-96
2023/04/18 11:15:53;;;;;;;11.52;7.60;;;;;;;10.85;70.24;102577.22;4949910;28;20046;-96
2023/04/18 11:18:18;;;;;;;10.73;8.00;;;;;;;10.83;70.48;102567.53;4950949;28;20027;-96